• pl
  • eng

Awiacja
WIADOMOŚCI
ostatnia aktualizacja: 17.04.2020 19:04
Szanowni Państwo,

mając na uwadze sytuację związaną z pandemią wywołaną koronawirusem SARS-Cov-2 oraz w trosce o bezpieczeństwo Państwa oraz naszych pracowników, IMGW-PIB podjął decyzję o przeniesieniu kolejnej edycji Szkoły Meteorologii Lotniczej na przyszły rok. W tej chwili podanie dokładnego terminu szkoły nie jest możliwe, ale jak tylko będzie znany zostanie ogłoszony na naszych stronach internetowych, do których śledzenia serdecznie zapraszamy.

TAF dla lotnisk wojskowych 13:30 18.09.2020

TAF EPCE 181100Z 1812/1821 30010KT CAVOK BECMG 1815/1817 24004KT=

TAF EPCE 181400Z 1815/1824 24004KT CAVOK=

TAF EPDA 181100Z 1812/1821 29007KT CAVOK TEMPO 1817/1821 VRB03KT=

TAF EPDA 181400Z 1815/1824 27007KT CAVOK BECMG 1817/1820 VRB03KT
PROB30 1821/1824 3000 MIFG BR=

TAF EPDE 181100Z 1812/1821 28012KT 9999 FEW040 SCT200 PROB30 TEMPO
1812/1814 30012G24KT
BECMG 1814/1816 26006KT CAVOK=

TAF EPDE 181400Z 1815/1824 26006KT CAVOK=

TAF AMD EPIR 181400Z 1812/1821 CNL=

TAF EPKS 181100Z 1812/1821 32004KT CAVOK=

TAF EPKS 181400Z 1815/1824 VRB03KT CAVOK=

TAF EPLK 181100Z 1812/1821 33010KT CAVOK=

TAF EPLK 181400Z 1815/1824 32007KT CAVOK=

TAF EPLY 181100Z 1812/1821 31008KT CAVOK=

TAF EPLY 181400Z 1815/1824 29006KT CAVOK=

TAF EPMB 181100Z 1812/1821 30012KT CAVOK=

TAF EPMB 181400Z 1815/1824 27008KT CAVOK=

TAF EPMI 181100Z 1812/1821 30008KT CAVOK
BECMG 1818/1820 VRB02KT=

TAF EPMI 181400Z 1815/1824 33008KT CAVOK
BECMG 1818/1820 VRB02KT=

TAF EPMM 181100Z 1812/1821 30010KT CAVOK=

TAF EPMM 181400Z 1815/1824 30008KT CAVOK=

TAF EPOK 181100Z 1812/1821 31010KT CAVOK=

TAF EPOK 181400Z 1815/1824 28010KT CAVOK=

TAF AMD EPPR 181330Z 1812/1821 CNL=

TAF EPPW 181100Z 1812/1821 30008KT CAVOK=

TAF EPPW 181400Z 1815/1824 29006KT CAVOK=

TAF AMD EPRA 181357Z 1812/1821 31008KT CAVOK=

TAF EPRA 181400Z 1815/1824 29006KT CAVOK=

TAF EPSN 181100Z 1812/1821 30006KT CAVOK=

TAF EPSN 181400Z 1815/1824 VRB03KT CAVOK
PROB30 1822/1824 3000 BR=

TAF EPTM 181100Z 1812/1821 31008KT CAVOK=

TAF EPTM 181400Z 1815/1824 31006KT CAVOK=
Awiacja.imgw.pl jest pogodowym serwisem informacyjnym
Instytutu Meteorologii i Gospodarki Wodnej Państwowego Instytutu Badawczego.
Copyright IMGW PIB 2009-2019© Wszelkie prawa zastrzeżone.